Portada
METAR-TAF:

METAR-TAF

Aeroports :

Kuopio, Finlàndia

latitud: 63-01N, longitud: 027-48E, altitud: 98 m

Observació

L'informe es va fer fa 23 minuts, a les 08:20 UTC
Vent 3 kt del Est, variant entre Nord/Nord-Est i Sud-Est
Temperatura 23°C
Humitat 69%
Pressió 1023 hPa
Visibilitat 10 km o més
sense núvols per sota de 1500 mi sense presència de cumulonimbus.

METAR: EFKU 080820Z AUTO 08003KT 030V140 CAVOK 23/17 Q1023

Hora: 11:43 (08:43 UTC)

Pronòstic

L'informe es va fer fa 3 hores i 15 minuts, a les 05:28 UTC
Pronòstic vàlid del 08 a les 06 UTC al 09 a les 06 UTC
Vent 2 kt amb direcció variable
Visibilitat 10 km o més
sense núvols per sota de 1500 mi sense presència de cumulonimbus.
Temporalment
l' 08 a les 10 UTC al 08 a les 18 UTC
Escasses núvols a una alçada de 4500 ft, Cumulonimbus.

TAF: EFKU 080528Z 0806/0906 VRB02KT CAVOK TEMPO 0810/0818 FEW045CB

Observacions i pronòstics meteorològics de més de 4000 aeroports (METAR i TAF).

Les estacions disponibles són els punts grocs i vermells al mapa.

Posi el ratolí al punt desitjat per veure el nom de l'estació.

Feu clic per veure les observacions i els pronòstics meteorològics.

Per canviar el mapa: feu clic els botons verds amb una creu de color negre per apropar; al botó verd amb un guió per allunyar la imatge; o en les fletxes verdes per a mapes adjacents.


METAR-TAF: